createdAt,value
2018-07-01T00:01:17.080Z,1.63
2018-07-01T00:03:45.793Z,1.67
2018-07-01T00:06:15.304Z,2.27
2018-07-01T00:08:44.038Z,2.27
2018-07-01T00:11:12.895Z,1.30
2018-07-01T00:13:41.549Z,6.60
2018-07-01T00:16:10.291Z,2.00
2018-07-01T00:18:39.071Z,1.03
2018-07-01T00:21:07.811Z,4.33
2018-07-01T00:23:36.572Z,3.43
2018-07-01T00:26:05.243Z,1.87
2018-07-01T00:28:34.204Z,1.27
2018-07-01T00:31:02.820Z,1.47
2018-07-01T00:33:32.122Z,2.70
2018-07-01T00:36:00.752Z,2.33
2018-07-01T00:38:29.726Z,2.40
2018-07-01T00:40:58.563Z,1.63
2018-07-01T00:43:27.312Z,1.83
2018-07-01T00:45:56.342Z,2.33
2018-07-01T00:48:24.796Z,0.83
2018-07-01T00:50:53.584Z,2.67
2018-07-01T00:53:22.559Z,1.20
2018-07-01T00:55:51.308Z,1.20
2018-07-01T00:58:20.663Z,2.33
2018-07-01T01:00:49.686Z,1.73
2018-07-01T01:03:18.479Z,3.33
2018-07-01T01:05:47.833Z,3.93
2018-07-01T01:08:16.629Z,0.93
2018-07-01T01:10:45.308Z,1.10
2018-07-01T01:13:13.981Z,1.13
2018-07-01T01:15:42.605Z,4.03
2018-07-01T01:18:11.350Z,1.83
2018-07-01T01:20:40.348Z,1.23
2018-07-01T01:23:09.409Z,1.53
2018-07-01T01:25:38.668Z,0.87
2018-07-01T01:28:07.415Z,1.33
2018-07-01T01:30:36.033Z,1.70
2018-07-01T01:33:04.838Z,2.93
2018-07-01T01:35:33.919Z,1.93
2018-07-01T01:38:02.583Z,1.50
2018-07-01T01:40:35.518Z,0.93
2018-07-01T01:43:09.548Z,1.70
2018-07-01T01:45:43.606Z,1.37
2018-07-01T01:48:20.634Z,1.13
2018-07-01T01:50:57.352Z,3.03
2018-07-01T01:53:39.065Z,1.57
2018-07-01T01:56:33.009Z,1.20
2018-07-01T01:59:05.662Z,1.07
2018-07-01T02:01:53.305Z,1.43
2018-07-01T02:04:29.916Z,3.50
2018-07-01T02:07:01.766Z,1.70
2018-07-01T02:09:33.005Z,1.80
2018-07-01T02:12:02.926Z,3.50
2018-07-01T02:14:37.905Z,4.57
2018-07-01T02:17:08.983Z,1.60
2018-07-01T02:19:37.893Z,1.97
2018-07-01T02:22:09.352Z,3.40
2018-07-01T02:24:41.217Z,3.03
2018-07-01T02:27:10.276Z,1.40
2018-07-01T02:29:38.993Z,3.77
2018-07-01T02:32:07.917Z,4.97
2018-07-01T02:34:36.693Z,2.07
2018-07-01T02:37:05.552Z,1.80
2018-07-01T02:39:34.120Z,1.37
2018-07-01T02:42:03.090Z,2.80
2018-07-01T02:44:32.095Z,2.40
2018-07-01T02:47:01.570Z,2.50
2018-07-01T02:49:30.435Z,2.30
2018-07-01T02:51:59.718Z,2.90
2018-07-01T02:54:28.572Z,4.17
2018-07-01T02:56:57.639Z,1.30
2018-07-01T02:59:26.609Z,1.07
2018-07-01T03:01:55.700Z,1.33
2018-07-01T03:04:24.361Z,2.20
2018-07-01T03:06:53.362Z,2.13
2018-07-01T03:09:22.026Z,1.77
2018-07-01T03:11:51.429Z,4.20
2018-07-01T03:14:20.403Z,3.93
2018-07-01T03:16:49.469Z,1.60
2018-07-01T03:19:18.612Z,5.00
2018-07-01T03:21:47.300Z,6.50
2018-07-01T03:24:16.070Z,4.23
2018-07-01T03:26:44.718Z,3.97
2018-07-01T03:29:13.791Z,3.73
2018-07-01T03:31:42.585Z,4.33
2018-07-01T03:34:12.406Z,5.13
2018-07-01T03:36:41.031Z,5.73
2018-07-01T03:39:10.498Z,5.63
2018-07-01T03:41:39.231Z,5.90
2018-07-01T03:44:08.056Z,6.93
2018-07-01T03:46:37.748Z,7.63
2018-07-01T03:49:07.093Z,7.40
2018-07-01T03:51:35.840Z,8.03
2018-07-01T03:54:05.116Z,9.83
2018-07-01T03:56:33.805Z,12.97
2018-07-01T03:59:03.122Z,11.77
2018-07-01T04:01:31.837Z,13.53
2018-07-01T04:04:00.792Z,14.40
2018-07-01T04:06:29.518Z,11.70
2018-07-01T04:08:58.711Z,16.83
2018-07-01T04:11:27.678Z,13.43
2018-07-01T04:13:56.757Z,15.50
2018-07-01T04:16:25.438Z,14.50
2018-07-01T04:18:54.676Z,14.87
2018-07-01T04:21:23.640Z,13.20
2018-07-01T04:23:52.634Z,15.63
2018-07-01T04:26:21.700Z,16.07
2018-07-01T04:28:50.549Z,13.90
2018-07-01T04:31:19.210Z,15.80
2018-07-01T04:33:48.409Z,13.37
2018-07-01T04:36:17.465Z,15.53
2018-07-01T04:38:46.426Z,13.50
2018-07-01T04:41:15.574Z,9.23
2018-07-01T04:43:44.800Z,14.57
2018-07-01T04:46:14.271Z,12.73
2018-07-01T04:48:43.147Z,12.63
2018-07-01T04:51:12.389Z,10.27
2018-07-01T04:53:41.061Z,9.93
2018-07-01T04:56:09.994Z,8.73
2018-07-01T04:58:40.050Z,10.20
2018-07-01T05:01:08.942Z,7.17
2018-07-01T05:03:38.605Z,7.47
2018-07-01T05:06:07.806Z,8.17
2018-07-01T05:08:36.569Z,7.80
2018-07-01T05:11:05.678Z,6.20
2018-07-01T05:13:34.441Z,4.97
2018-07-01T05:16:03.359Z,7.77
2018-07-01T05:18:32.291Z,6.07
2018-07-01T05:21:01.224Z,5.37
2018-07-01T05:23:30.290Z,6.07
2018-07-01T05:25:59.316Z,5.30
2018-07-01T05:28:27.983Z,6.00
2018-07-01T05:30:56.762Z,5.97
2018-07-01T05:33:25.592Z,6.60
2018-07-01T05:35:54.232Z,2.43
2018-07-01T05:38:22.854Z,6.57
2018-07-01T05:40:51.868Z,3.87
2018-07-01T05:43:20.553Z,3.87
2018-07-01T05:45:49.356Z,2.53
2018-07-01T05:48:17.972Z,3.47
2018-07-01T05:50:46.866Z,2.07
2018-07-01T05:53:15.604Z,5.13
2018-07-01T05:55:44.575Z,3.50
2018-07-01T05:58:13.365Z,1.93
2018-07-01T06:00:42.129Z,2.70
2018-07-01T06:03:10.820Z,3.13
2018-07-01T06:05:39.481Z,2.50
2018-07-01T06:08:08.605Z,2.77
2018-07-01T06:10:37.483Z,2.93
2018-07-01T06:13:06.497Z,1.13
2018-07-01T06:15:35.286Z,2.27
2018-07-01T06:18:04.046Z,2.17
2018-07-01T06:20:32.805Z,2.33
2018-07-01T06:23:01.788Z,1.20
2018-07-01T06:25:30.746Z,1.17
2018-07-01T06:27:59.878Z,1.17
2018-07-01T06:30:28.507Z,0.80
2018-07-01T06:32:56.854Z,2.83
2018-07-01T06:35:25.384Z,1.20
2018-07-01T06:37:53.854Z,1.23
2018-07-01T06:40:22.140Z,2.73
2018-07-01T06:42:50.404Z,1.37
2018-07-01T06:45:18.880Z,2.70
2018-07-01T06:47:47.584Z,1.23
2018-07-01T06:50:15.896Z,7.17
2018-07-01T06:52:44.509Z,1.17
2018-07-01T06:55:12.816Z,1.70
2018-07-01T06:57:40.993Z,1.20
2018-07-01T07:00:09.904Z,2.10
2018-07-01T07:02:38.229Z,1.67
2018-07-01T07:05:06.492Z,2.77
2018-07-01T07:07:34.735Z,0.90
2018-07-01T07:10:02.996Z,3.43
2018-07-01T07:12:31.516Z,1.53
2018-07-01T07:14:59.827Z,1.27
2018-07-01T07:17:28.491Z,1.40
2018-07-01T07:19:56.683Z,2.03
2018-07-01T07:22:24.915Z,1.27
2018-07-01T07:24:53.817Z,2.17
2018-07-01T07:27:22.235Z,4.70
2018-07-01T07:29:50.403Z,1.07
2018-07-01T07:32:19.196Z,0.90
2018-07-01T07:34:48.705Z,2.40
2018-07-01T07:37:17.454Z,1.20
2018-07-01T07:39:46.107Z,0.87
2018-07-01T07:42:14.675Z,1.10
2018-07-01T07:44:43.346Z,1.50
2018-07-01T07:47:12.306Z,2.57
2018-07-01T07:49:41.180Z,2.30
2018-07-01T07:52:09.550Z,2.20
2018-07-01T07:54:37.820Z,0.97
2018-07-01T07:57:06.094Z,1.83
2018-07-01T07:59:34.380Z,2.07
2018-07-01T08:02:03.013Z,1.90
2018-07-01T08:04:31.569Z,0.80
2018-07-01T08:06:59.823Z,2.63
2018-07-01T08:09:28.122Z,0.80
2018-07-01T08:11:57.272Z,4.50
2018-07-01T08:14:25.613Z,0.80
2018-07-01T08:16:54.684Z,4.33
2018-07-01T08:19:23.268Z,3.80
2018-07-01T08:21:51.602Z,2.00
2018-07-01T08:24:20.151Z,0.60
2018-07-01T08:26:48.383Z,0.70
2018-07-01T08:29:16.736Z,2.13
2018-07-01T08:31:45.320Z,4.07
2018-07-01T08:34:13.611Z,0.80
2018-07-01T08:36:41.840Z,4.37
2018-07-01T08:39:11.423Z,1.57
2018-07-01T08:41:45.149Z,1.47
2018-07-01T08:44:13.451Z,0.87
2018-07-01T08:46:41.739Z,2.63
2018-07-01T08:49:10.286Z,2.57
2018-07-01T08:51:38.683Z,1.30
2018-07-01T08:54:06.962Z,1.73
2018-07-01T08:56:36.313Z,0.70
2018-07-01T08:59:04.730Z,3.20
2018-07-01T09:01:33.053Z,5.23
2018-07-01T09:04:01.513Z,3.90
2018-07-01T09:06:30.050Z,2.67
2018-07-01T09:08:58.275Z,2.03
2018-07-01T09:11:26.519Z,0.80
2018-07-01T09:13:55.334Z,5.60
2018-07-01T09:16:23.951Z,2.47
2018-07-01T09:18:52.296Z,2.53
2018-07-01T09:21:20.826Z,1.10
2018-07-01T09:23:49.291Z,3.73
2018-07-01T09:26:17.843Z,1.57
2018-07-01T09:28:46.488Z,1.47
2018-07-01T09:31:14.767Z,1.60
2018-07-01T09:33:43.647Z,1.80
2018-07-01T09:36:12.775Z,2.30
2018-07-01T09:38:41.100Z,3.80
2018-07-01T09:41:09.867Z,2.67
2018-07-01T09:43:38.498Z,2.83
2018-07-01T09:46:07.571Z,2.40
2018-07-01T09:48:35.788Z,1.63
2018-07-01T09:51:05.472Z,0.70
2018-07-01T09:53:33.855Z,1.70
2018-07-01T09:56:03.048Z,3.97
2018-07-01T09:58:31.431Z,2.90
2018-07-01T10:01:00.448Z,1.27
2018-07-01T10:03:28.619Z,2.60
2018-07-01T10:05:56.985Z,0.70
2018-07-01T10:08:26.882Z,2.03
2018-07-01T10:10:55.228Z,1.43
2018-07-01T10:13:23.528Z,2.03
2018-07-01T10:15:53.143Z,2.63
2018-07-01T10:18:22.725Z,3.87
2018-07-01T10:20:51.151Z,2.63
2018-07-01T10:23:19.727Z,1.57
2018-07-01T10:25:48.705Z,1.70
2018-07-01T10:28:17.263Z,0.73
2018-07-01T10:30:45.586Z,0.67
2018-07-01T10:33:14.121Z,2.00
2018-07-01T10:35:42.569Z,2.73
2018-07-01T10:38:10.969Z,5.27
2018-07-01T10:40:39.483Z,1.37
2018-07-01T10:43:08.325Z,1.07
2018-07-01T10:45:36.999Z,1.10
2018-07-01T10:48:05.307Z,1.37
2018-07-01T10:50:34.943Z,0.80
2018-07-01T10:53:03.500Z,3.23
2018-07-01T10:55:31.978Z,1.87
2018-07-01T10:58:05.527Z,0.87
2018-07-01T11:00:36.305Z,3.13
2018-07-01T11:03:04.985Z,0.80
2018-07-01T11:05:33.287Z,4.30
2018-07-01T11:08:03.459Z,1.17
2018-07-01T11:10:31.785Z,2.43
2018-07-01T11:13:00.206Z,1.80
2018-07-01T11:15:28.539Z,1.40
2018-07-01T11:17:56.739Z,2.37
2018-07-01T11:20:25.409Z,1.93
2018-07-01T11:22:53.620Z,4.30
2018-07-01T11:25:21.936Z,0.70
2018-07-01T11:27:50.223Z,3.87
2018-07-01T11:30:18.539Z,0.80
2018-07-01T11:32:46.949Z,1.30
2018-07-01T11:35:15.304Z,0.70
2018-07-01T11:37:43.655Z,2.53
2018-07-01T11:40:13.155Z,3.00
2018-07-01T11:42:41.788Z,3.70
2018-07-01T11:45:10.475Z,2.10
2018-07-01T11:47:39.414Z,1.70
2018-07-01T11:50:08.075Z,0.82
2018-07-01T11:52:37.496Z,2.02
2018-07-01T11:55:05.695Z,1.95
2018-07-01T11:57:33.971Z,0.98
2018-07-01T12:00:03.739Z,4.17
2018-07-01T12:02:35.516Z,1.90
2018-07-01T12:05:16.656Z,3.62
2018-07-01T12:07:36.073Z,2.27
2018-07-01T12:10:04.677Z,3.52
2018-07-01T12:12:33.054Z,1.98
2018-07-01T12:15:03.800Z,0.93
2018-07-01T12:17:33.272Z,1.40
2018-07-01T12:20:03.403Z,3.30
2018-07-01T12:22:37.635Z,1.65
2018-07-01T12:25:07.110Z,1.07
2018-07-01T12:27:37.043Z,4.40
2018-07-01T12:30:07.267Z,1.32
2018-07-01T12:32:37.529Z,3.35
2018-07-01T12:35:06.796Z,2.72
2018-07-01T12:37:35.609Z,2.27
2018-07-01T12:40:04.361Z,1.60
2018-07-01T12:42:32.780Z,4.47
2018-07-01T12:45:01.457Z,1.98
2018-07-01T12:47:29.923Z,2.25
2018-07-01T12:50:00.510Z,5.58
2018-07-01T12:52:29.004Z,2.90
2018-07-01T12:54:57.416Z,3.37
2018-07-01T12:57:25.812Z,1.65
2018-07-01T12:59:58.238Z,2.90
2018-07-01T13:02:26.607Z,1.20
2018-07-01T13:04:56.039Z,1.55
2018-07-01T13:07:24.178Z,0.90
2018-07-01T13:09:52.961Z,0.90
2018-07-01T13:12:21.389Z,1.87
2018-07-01T13:14:50.758Z,0.88
2018-07-01T13:17:19.019Z,3.00
2018-07-01T13:19:47.396Z,5.40
2018-07-01T13:22:15.855Z,1.90
2018-07-01T13:24:44.787Z,3.27
2018-07-01T13:27:13.782Z,1.75
2018-07-01T13:29:42.130Z,3.05
2018-07-01T13:32:10.635Z,2.37
2018-07-01T13:34:38.914Z,3.62
2018-07-01T13:37:07.231Z,2.40
2018-07-01T13:39:35.760Z,3.40
2018-07-01T13:42:04.199Z,1.17
2018-07-01T13:44:32.954Z,1.35
2018-07-01T13:47:01.568Z,1.15
2018-07-01T13:49:30.844Z,5.95
2018-07-01T13:51:59.506Z,2.27
2018-07-01T13:54:27.809Z,0.88
2018-07-01T13:56:56.205Z,2.52
2018-07-01T13:59:25.089Z,1.05
2018-07-01T14:01:53.569Z,2.42
2018-07-01T14:04:22.523Z,3.92
2018-07-01T14:06:50.898Z,1.27
2018-07-01T14:09:19.143Z,1.10
2018-07-01T14:11:47.983Z,0.90
2018-07-01T14:14:16.314Z,1.72
2018-07-01T14:16:45.185Z,3.42
2018-07-01T14:19:13.754Z,1.60
2018-07-01T14:21:42.147Z,3.00
2018-07-01T14:24:10.711Z,2.02
2018-07-01T14:26:39.058Z,4.97
2018-07-01T14:29:08.133Z,1.37
2018-07-01T14:31:37.381Z,1.07
2018-07-01T14:34:05.621Z,2.12
2018-07-01T14:36:34.063Z,2.05
2018-07-01T14:39:02.528Z,2.50
2018-07-01T14:41:30.819Z,4.08
2018-07-01T14:43:59.276Z,1.15
2018-07-01T14:46:28.016Z,1.32
2018-07-01T14:48:56.271Z,2.83
2018-07-01T14:51:24.852Z,0.98
2018-07-01T14:53:53.418Z,0.90
2018-07-01T14:56:21.779Z,1.90
2018-07-01T14:58:50.780Z,1.00
2018-07-01T15:01:19.267Z,2.20
2018-07-01T15:03:48.004Z,1.62
2018-07-01T15:06:16.703Z,3.05
2018-07-01T15:08:45.665Z,2.70
2018-07-01T15:11:14.477Z,2.47
2018-07-01T15:13:42.907Z,0.95
2018-07-01T15:16:11.207Z,3.08
2018-07-01T15:18:39.907Z,3.00
2018-07-01T15:21:09.288Z,2.83
2018-07-01T15:23:37.590Z,2.72
2018-07-01T15:26:06.287Z,1.90
2018-07-01T15:28:34.671Z,2.58
2018-07-01T15:31:03.252Z,3.20
2018-07-01T15:33:32.012Z,2.08
2018-07-01T15:36:00.315Z,3.92
2018-07-01T15:38:28.793Z,2.42
2018-07-01T15:40:57.128Z,1.02
2018-07-01T15:43:26.140Z,2.70
2018-07-01T15:45:54.605Z,5.95
2018-07-01T15:48:22.856Z,3.55
2018-07-01T15:50:53.361Z,1.77
2018-07-01T15:53:21.702Z,3.40
2018-07-01T15:55:50.074Z,4.47
2018-07-01T15:58:18.600Z,6.62
2018-07-01T16:00:47.662Z,7.05
2018-07-01T16:03:16.034Z,2.60
2018-07-01T16:05:44.797Z,4.00
2018-07-01T16:08:13.263Z,1.12
2018-07-01T16:10:43.566Z,6.50
2018-07-01T16:13:11.902Z,3.55
2018-07-01T16:15:40.566Z,2.12
2018-07-01T16:18:09.006Z,2.45
2018-07-01T16:20:37.468Z,2.35
2018-07-01T16:23:06.446Z,2.30
2018-07-01T16:25:39.066Z,3.15
2018-07-01T16:28:12.749Z,2.65
2018-07-01T16:30:42.250Z,1.92
2018-07-01T16:33:10.652Z,2.12
2018-07-01T16:35:39.071Z,1.77
2018-07-01T16:38:07.453Z,4.42
2018-07-01T16:40:36.136Z,2.52
2018-07-01T16:43:04.955Z,1.67
2018-07-01T16:45:33.739Z,1.90
2018-07-01T16:48:02.637Z,2.15
2018-07-01T16:50:31.077Z,2.15
2018-07-01T16:52:59.498Z,1.95
2018-07-01T16:55:27.756Z,2.55
2018-07-01T16:57:56.540Z,4.35
2018-07-01T17:00:25.300Z,3.70
2018-07-01T17:02:53.861Z,3.10
2018-07-01T17:05:22.902Z,1.67
2018-07-01T17:07:51.452Z,2.70
2018-07-01T17:10:19.884Z,5.78
2018-07-01T17:12:48.205Z,1.67
2018-07-01T17:15:16.705Z,1.62
2018-07-01T17:17:45.467Z,1.87
2018-07-01T17:20:14.369Z,1.57
2018-07-01T17:22:42.787Z,1.17
2018-07-01T17:25:16.858Z,0.93
2018-07-01T17:27:48.730Z,2.25
2018-07-01T17:30:17.502Z,2.52
2018-07-01T17:32:51.135Z,1.85
2018-07-01T17:35:20.000Z,2.10
2018-07-01T17:37:48.675Z,5.42
2018-07-01T17:40:17.353Z,1.95
2018-07-01T17:42:46.022Z,2.52
2018-07-01T17:45:15.659Z,1.27
2018-07-01T17:47:44.598Z,1.57
2018-07-01T17:50:13.042Z,1.22
2018-07-01T17:52:41.356Z,1.20
2018-07-01T17:55:10.367Z,2.20
2018-07-01T17:57:39.358Z,3.10
2018-07-01T18:00:08.247Z,1.70
2018-07-01T18:02:42.559Z,3.03
2018-07-01T18:05:10.951Z,1.60
2018-07-01T18:07:40.042Z,3.13
2018-07-01T18:10:09.482Z,2.17
2018-07-01T18:12:42.358Z,4.60
2018-07-01T18:15:12.979Z,1.67
2018-07-01T18:17:44.054Z,3.47
2018-07-01T18:20:13.135Z,1.47
2018-07-01T18:23:09.758Z,1.27
2018-07-01T18:25:12.343Z,1.00
2018-07-01T18:30:25.967Z,2.27
2018-07-01T18:33:02.637Z,0.80
2018-07-01T18:38:25.190Z,1.90
2018-07-01T18:40:54.270Z,2.03
2018-07-01T18:43:23.251Z,3.10
2018-07-01T18:45:52.111Z,1.00
2018-07-01T18:48:21.484Z,2.93
2018-07-01T18:57:29.250Z,1.80
2018-07-01T18:59:59.518Z,6.10
2018-07-01T19:02:31.630Z,3.23
2018-07-01T19:05:09.068Z,2.03
2018-07-01T19:07:38.485Z,1.77
2018-07-01T19:12:53.636Z,2.00
2018-07-01T19:28:36.214Z,1.80
2018-07-01T19:31:18.715Z,2.30
2018-07-01T19:42:27.269Z,0.70
2018-07-01T19:44:55.912Z,0.97
2018-07-01T19:47:24.555Z,2.10
2018-07-01T19:49:55.397Z,2.77
2018-07-01T19:52:25.426Z,2.53
2018-07-01T19:54:57.956Z,1.20
2018-07-01T19:57:27.422Z,1.70
2018-07-01T19:59:57.198Z,2.43
2018-07-01T20:02:26.562Z,0.80
2018-07-01T20:04:56.144Z,2.70
2018-07-01T20:07:28.451Z,1.07
2018-07-01T20:09:58.185Z,1.10
2018-07-01T20:12:27.298Z,4.57
2018-07-01T20:14:57.703Z,0.80
2018-07-01T20:17:26.567Z,1.63
2018-07-01T20:19:55.779Z,1.73
2018-07-01T20:22:24.568Z,4.20
2018-07-01T20:24:53.272Z,0.80
2018-07-01T20:27:22.167Z,0.90
2018-07-01T20:29:51.381Z,1.40
2018-07-01T20:32:20.267Z,1.07
2018-07-01T20:34:49.049Z,3.40
2018-07-01T20:37:17.792Z,0.90
2018-07-01T20:39:47.373Z,1.20
2018-07-01T20:42:16.592Z,1.03
2018-07-01T20:44:45.516Z,1.93
2018-07-01T20:47:14.896Z,1.97
2018-07-01T20:49:44.113Z,1.00
2018-07-01T20:52:13.075Z,1.03
2018-07-01T20:54:41.977Z,1.80
2018-07-01T20:57:11.543Z,1.43
2018-07-01T20:59:40.389Z,1.37
2018-07-01T21:02:09.600Z,1.23
2018-07-01T21:04:40.439Z,1.03
2018-07-01T21:07:09.259Z,1.73
2018-07-01T21:09:38.220Z,0.90
2018-07-01T21:12:07.223Z,2.17
2018-07-01T21:14:36.124Z,1.60
2018-07-01T21:17:05.164Z,3.50
2018-07-01T21:19:34.172Z,3.00
2018-07-01T21:22:02.966Z,3.07
2018-07-01T21:24:32.325Z,2.87
2018-07-01T21:27:01.647Z,1.90
2018-07-01T21:29:30.749Z,0.90
2018-07-01T21:31:59.833Z,1.97
2018-07-01T21:34:28.775Z,3.33
2018-07-01T21:36:58.210Z,1.20
2018-07-01T21:39:27.442Z,2.10
2018-07-01T21:41:56.501Z,5.03
2018-07-01T21:44:26.070Z,3.37
2018-07-01T21:46:55.317Z,4.70
2018-07-01T21:49:24.077Z,1.63
2018-07-01T21:51:53.054Z,1.80
2018-07-01T21:54:21.909Z,2.87
2018-07-01T21:56:52.217Z,2.07
2018-07-01T21:59:20.576Z,2.63
2018-07-01T22:01:49.301Z,1.80
2018-07-01T22:04:18.038Z,1.20
2018-07-01T22:06:51.879Z,2.67
2018-07-01T22:09:20.261Z,1.27
2018-07-01T22:11:58.385Z,2.90
2018-07-01T22:14:40.221Z,1.10
2018-07-01T22:17:09.865Z,3.50
2018-07-01T22:19:39.276Z,1.33
2018-07-01T22:22:08.146Z,2.27
2018-07-01T22:24:37.867Z,1.73
2018-07-01T22:27:06.929Z,2.03
2018-07-01T22:29:35.970Z,1.83
2018-07-01T22:32:04.948Z,3.67
2018-07-01T22:34:33.728Z,4.20
2018-07-01T22:37:02.579Z,1.40
2018-07-01T22:39:31.706Z,3.03
2018-07-01T22:42:01.591Z,1.63
2018-07-01T22:44:30.857Z,1.73
2018-07-01T22:46:59.598Z,1.50
2018-07-01T22:49:28.233Z,2.30
2018-07-01T22:51:56.989Z,2.10
2018-07-01T22:54:25.974Z,1.40
2018-07-01T22:56:54.976Z,4.37
2018-07-01T22:59:23.712Z,1.53
2018-07-01T23:03:06.000Z,3.27
2018-07-01T23:05:34.921Z,1.37
2018-07-01T23:08:04.243Z,3.13
2018-07-01T23:10:33.212Z,1.90
2018-07-01T23:13:02.082Z,2.13
2018-07-01T23:15:31.124Z,1.43
2018-07-01T23:18:00.162Z,1.33
2018-07-01T23:20:29.563Z,2.23
2018-07-01T23:22:58.705Z,2.60
2018-07-01T23:25:27.848Z,1.70
2018-07-01T23:27:56.620Z,1.47
2018-07-01T23:30:25.406Z,1.70
2018-07-01T23:32:54.171Z,1.77
2018-07-01T23:35:22.928Z,1.17
2018-07-01T23:37:52.092Z,1.63
2018-07-01T23:40:22.127Z,3.47
2018-07-01T23:42:51.062Z,2.77
2018-07-01T23:45:19.974Z,2.23
2018-07-01T23:47:49.371Z,2.40
2018-07-01T23:50:18.794Z,1.07
2018-07-01T23:52:47.670Z,2.07
2018-07-01T23:55:16.674Z,1.97
2018-07-01T23:57:46.216Z,4.63
